Time;durP1;ratioP1;P1;durP2;ratioP2;P2;SDS_P1;SDS_P2;PMS_P1;PMS_P2;Temp;Humidity;BMP_temperature;BMP_pressure;BME280_temperature;BME280_humidity;BME280_pressure;Samples;Min_cycle;Max_cycle;Signal;HPM_P1;HPM_P2
2022/03/17 00:00:40;;;;;;;0.43;0.20;;;20.80;48.30;;;;;;5122384;27;20035;-48
2022/03/17 00:03:07;;;;;;;0.45;0.10;;;20.80;48.20;;;;;;5117952;27;20069;-46
2022/03/17 00:05:34;;;;;;;1.67;0.10;;;20.80;48.20;;;;;;5110284;28;20419;-48
2022/03/17 00:08:03;;;;;;;0.20;0.20;;;20.80;48.20;;;;;;5115132;27;20054;-47
2022/03/17 00:10:33;;;;;;;1.75;0.10;;;20.80;48.20;;;;;;5121929;27;20146;-48
2022/03/17 00:13:00;;;;;;;0.10;0.10;;;20.80;48.20;;;;;;5119554;27;20063;-48
2022/03/17 00:15:27;;;;;;;0.25;0.10;;;20.80;48.20;;;;;;5114120;28;20042;-48
2022/03/17 00:17:54;;;;;;;0.10;0.10;;;20.80;48.20;;;;;;5123978;28;20047;-47
2022/03/17 00:20:22;;;;;;;0.30;0.10;;;20.80;48.20;;;;;;5123595;27;20234;-47
2022/03/17 00:22:49;;;;;;;0.50;0.10;;;20.80;48.20;;;;;;5127931;27;20061;-47
2022/03/17 00:25:17;;;;;;;0.20;0.10;;;20.80;48.20;;;;;;5121521;27;20435;-50
2022/03/17 00:27:45;;;;;;;0.50;0.10;;;20.80;48.20;;;;;;5124402;27;20065;-51
2022/03/17 00:30:13;;;;;;;0.55;0.10;;;20.80;48.20;;;;;;5121258;27;20061;-46
2022/03/17 00:32:40;;;;;;;0.20;0.10;;;20.70;48.10;;;;;;5116622;28;20076;-47
2022/03/17 00:37:53;;;;;;;0.10;0.10;;;20.70;48.20;;;;;;5116123;27;20609;-46
2022/03/17 00:40:20;;;;;;;1.40;0.10;;;20.70;48.20;;;;;;5115017;27;20044;-49
2022/03/17 00:42:49;;;;;;;0.15;0.10;;;20.70;48.20;;;;;;5122315;27;20384;-48
2022/03/17 00:45:16;;;;;;;0.13;0.10;;;20.70;48.10;;;;;;5117132;27;20031;-49
2022/03/17 00:47:43;;;;;;;0.70;0.10;;;20.70;48.20;;;;;;5120915;28;20055;-47
2022/03/17 00:50:11;;;;;;;1.75;0.13;;;20.70;48.20;;;;;;5117918;27;20507;-50
2022/03/17 00:52:38;;;;;;;0.57;0.10;;;20.70;48.20;;;;;;5125399;27;20055;-47
2022/03/17 00:55:06;;;;;;;0.10;0.10;;;20.70;48.20;;;;;;5118280;27;20404;-47
2022/03/17 00:57:36;;;;;;;2.17;0.35;;;20.70;48.20;;;;;;5120825;27;20061;-49
2022/03/17 01:00:05;;;;;;;2.33;0.10;;;20.70;48.20;;;;;;5116156;27;20458;-47
2022/03/17 01:02:32;;;;;;;0.35;0.10;;;20.70;48.20;;;;;;5119315;27;20051;-46
2022/03/17 01:04:59;;;;;;;0.20;0.10;;;20.70;48.10;;;;;;5118151;27;20487;-50
2022/03/17 01:07:26;;;;;;;0.50;0.10;;;20.70;48.10;;;;;;5124906;27;20062;-47
2022/03/17 01:09:53;;;;;;;0.30;0.10;;;20.70;48.20;;;;;;5129891;27;20038;-49
2022/03/17 01:12:20;;;;;;;0.45;0.10;;;20.70;48.10;;;;;;5127079;27;20042;-47
2022/03/17 01:14:48;;;;;;;0.55;0.10;;;20.70;48.10;;;;;;5116512;27;20100;-46
2022/03/17 01:17:17;;;;;;;1.27;0.10;;;20.70;48.70;;;;;;5119000;27;20503;-50
2022/03/17 01:19:44;;;;;;;0.63;0.40;;;20.70;48.10;;;;;;5133722;27;20039;-48
2022/03/17 01:22:11;;;;;;;2.72;0.10;;;20.70;48.20;;;;;;5126936;27;20533;-49
2022/03/17 01:24:39;;;;;;;1.10;0.20;;;20.60;48.10;;;;;;5130427;27;20034;-48
2022/03/17 01:27:06;;;;;;;0.10;0.00;;;20.60;48.10;;;;;;5121578;27;20045;-47
2022/03/17 01:29:33;;;;;;;0.10;0.10;;;20.60;48.00;;;;;;5094561;27;20510;-49
2022/03/17 01:32:00;;;;;;;0.43;0.10;;;20.60;48.00;;;;;;5115813;27;20082;-49
2022/03/17 01:34:29;;;;;;;1.15;0.10;;;20.60;48.10;;;;;;5130322;27;20100;-49
2022/03/17 01:36:56;;;;;;;0.10;0.10;;;20.60;48.10;;;;;;5120910;27;20135;-46
2022/03/17 01:39:23;;;;;;;0.38;0.10;;;20.60;48.10;;;;;;5117258;27;20036;-46
2022/03/17 01:41:51;;;;;;;0.10;0.10;;;20.60;48.10;;;;;;5116101;27;20054;-47
2022/03/17 01:44:18;;;;;;;0.20;0.10;;;20.60;48.10;;;;;;5121935;27;20051;-48
2022/03/17 01:49:31;;;;;;;0.10;0.10;;;20.60;48.10;;;;;;5120477;27;20059;-46
2022/03/17 01:51:58;;;;;;;0.25;0.25;;;20.60;48.10;;;;;;5109940;27;20043;-50
2022/03/17 01:54:25;;;;;;;0.47;0.20;;;20.60;48.10;;;;;;5100364;27;20589;-47
2022/03/17 01:56:52;;;;;;;0.47;0.10;;;20.60;48.10;;;;;;5114032;27;20571;-49
2022/03/17 01:59:21;;;;;;;2.05;0.20;;;20.50;48.00;;;;;;5117607;27;20054;-50
2022/03/17 02:01:49;;;;;;;0.10;0.10;;;20.50;48.00;;;;;;5126378;27;20134;-47
2022/03/17 02:04:16;;;;;;;0.20;0.10;;;20.60;48.00;;;;;;5129995;27;20109;-47
2022/03/17 02:06:45;;;;;;;0.10;0.10;;;20.50;48.00;;;;;;5129402;27;20054;-49
2022/03/17 02:09:12;;;;;;;1.20;0.10;;;20.60;48.10;;;;;;5116975;27;20046;-46
2022/03/17 02:14:26;;;;;;;0.30;0.10;;;20.50;48.00;;;;;;5115507;27;20423;-51
2022/03/17 02:16:53;;;;;;;0.50;0.22;;;20.50;48.00;;;;;;5132318;27;20061;-48
2022/03/17 02:19:21;;;;;;;0.80;0.08;;;20.50;48.00;;;;;;5114764;27;20039;-48
2022/03/17 02:21:50;;;;;;;1.17;0.10;;;20.50;48.60;;;;;;5121177;27;20035;-46
2022/03/17 02:27:04;;;;;;;0.28;0.10;;;20.50;48.00;;;;;;5121356;27;20046;-47
2022/03/17 02:29:31;;;;;;;0.10;0.10;;;20.50;48.00;;;;;;5121682;27;20039;-46
2022/03/17 02:31:58;;;;;;;0.73;0.10;;;20.50;48.10;;;;;;5121611;27;20051;-49
2022/03/17 02:34:25;;;;;;;0.75;0.10;;;20.50;48.00;;;;;;5134543;27;20039;-49
2022/03/17 02:36:54;;;;;;;1.55;0.20;;;20.50;48.00;;;;;;5122476;27;20042;-47
2022/03/17 02:39:22;;;;;;;1.65;0.13;;;20.50;48.00;;;;;;5121562;27;20040;-47
2022/03/17 02:41:50;;;;;;;0.63;0.10;;;20.50;48.00;;;;;;5118057;27;20072;-47
2022/03/17 02:44:17;;;;;;;0.10;0.10;;;20.50;48.00;;;;;;5123078;27;20040;-47
2022/03/17 02:46:44;;;;;;;0.43;0.10;;;20.50;48.00;;;;;;5126445;27;20047;-49
2022/03/17 02:49:15;;;;;;;0.28;0.10;;;20.50;48.00;;;;;;5103086;27;20049;-46
2022/03/17 02:51:42;;;;;;;0.57;0.10;;;20.50;48.00;;;;;;5129909;27;20533;-47
2022/03/17 02:54:09;;;;;;;0.10;0.10;;;20.50;48.00;;;;;;5122907;27;20486;-48
2022/03/17 02:56:37;;;;;;;0.08;0.08;;;20.50;48.00;;;;;;5113450;27;20810;-47
2022/03/17 02:59:04;;;;;;;0.57;0.10;;;20.50;48.00;;;;;;5121523;27;20043;-47
2022/03/17 03:01:31;;;;;;;1.95;0.20;;;20.50;48.00;;;;;;5127386;27;20039;-48
2022/03/17 03:03:58;;;;;;;1.88;0.10;;;20.50;48.00;;;;;;5126520;27;20043;-47
2022/03/17 03:06:25;;;;;;;1.40;0.00;;;20.40;47.90;;;;;;5124814;27;20027;-47
2022/03/17 03:08:52;;;;;;;1.13;0.10;;;20.50;48.00;;;;;;5120574;27;20051;-48
2022/03/17 03:11:20;;;;;;;0.10;0.00;;;20.40;47.90;;;;;;5126241;27;20419;-46
2022/03/17 03:13:50;;;;;;;0.63;0.20;;;20.50;48.50;;;;;;5114574;27;20120;-46
2022/03/17 03:16:17;;;;;;;0.15;0.10;;;20.40;47.80;;;;;;5126863;27;20135;-48
2022/03/17 03:18:45;;;;;;;1.45;0.10;;;20.50;47.90;;;;;;5114197;27;20820;-46
2022/03/17 03:21:12;;;;;;;0.93;0.55;;;20.40;47.90;;;;;;5120293;27;20051;-46
2022/03/17 03:23:39;;;;;;;0.10;0.10;;;20.40;47.90;;;;;;5114253;27;20047;-48
2022/03/17 03:26:06;;;;;;;0.20;0.10;;;20.40;47.90;;;;;;5121625;27;20039;-47
2022/03/17 03:28:33;;;;;;;0.20;0.00;;;20.40;47.90;;;;;;5116513;27;20047;-46
2022/03/17 03:31:02;;;;;;;0.65;0.10;;;20.40;47.90;;;;;;5123502;27;20070;-50
2022/03/17 03:33:29;;;;;;;0.47;0.10;;;20.40;47.90;;;;;;5126614;27;20031;-49
2022/03/17 03:38:40;;;;;;;0.40;0.10;;;20.40;47.90;;;;;;5110947;27;20039;-48
2022/03/17 03:41:07;;;;;;;0.20;0.10;;;20.40;47.90;;;;;;5116319;27;20050;-47
2022/03/17 03:43:34;;;;;;;0.82;0.10;;;20.40;47.90;;;;;;5127781;27;20039;-48
2022/03/17 03:46:03;;;;;;;0.30;0.10;;;20.30;47.90;;;;;;5121626;27;20043;-47
2022/03/17 03:48:31;;;;;;;0.15;0.10;;;20.40;47.90;;;;;;5118371;27;20053;-46
2022/03/17 03:50:58;;;;;;;0.40;0.10;;;20.30;47.90;;;;;;5116723;27;20497;-47
2022/03/17 03:54:12;;;;;;;0.10;0.10;;;20.30;47.80;;;;;;5125255;27;20142;-47
2022/03/17 03:56:13;;;;;;;0.77;0.22;;;20.30;47.90;;;;;;5119371;27;20039;-46
2022/03/17 03:58:40;;;;;;;1.30;0.10;;;20.30;47.90;;;;;;5106991;27;20059;-47
2022/03/17 04:01:08;;;;;;;1.65;0.10;;;20.30;47.80;;;;;;5117435;27;20067;-48
2022/03/17 04:03:35;;;;;;;0.10;0.10;;;20.30;47.80;;;;;;5121092;27;20050;-49
2022/03/17 04:06:02;;;;;;;0.50;0.28;;;20.30;47.80;;;;;;5128173;27;20520;-46
2022/03/17 04:08:29;;;;;;;0.40;0.10;;;20.30;47.80;;;;;;5119192;27;20091;-47
2022/03/17 04:10:56;;;;;;;0.20;0.20;;;20.30;47.80;;;;;;5117274;27;20070;-47
2022/03/17 04:13:23;;;;;;;0.10;0.10;;;20.30;48.40;;;;;;5127104;27;20031;-47
2022/03/17 04:15:50;;;;;;;0.10;0.10;;;20.30;47.80;;;;;;5128261;27;20038;-49
2022/03/17 04:18:19;;;;;;;0.45;0.20;;;20.30;47.80;;;;;;5114926;28;20031;-48
2022/03/17 04:20:46;;;;;;;1.58;0.10;;;20.30;47.70;;;;;;5111464;28;20039;-49
2022/03/17 04:23:13;;;;;;;0.10;0.10;;;20.30;47.80;;;;;;5119437;27;20047;-47
2022/03/17 04:25:40;;;;;;;0.10;0.10;;;20.20;47.70;;;;;;5119819;28;20052;-46
2022/03/17 04:28:08;;;;;;;0.10;0.10;;;20.20;47.70;;;;;;5122814;27;20458;-46
2022/03/17 04:30:36;;;;;;;0.13;0.10;;;20.20;47.70;;;;;;5118926;27;20034;-49
2022/03/17 04:33:03;;;;;;;0.20;0.10;;;20.20;47.70;;;;;;5113636;27;20069;-48
2022/03/17 04:35:32;;;;;;;0.20;0.10;;;20.30;47.70;;;;;;5122409;27;20135;-47
2022/03/17 04:37:58;;;;;;;0.00;0.00;;;20.20;47.60;;;;;;5126555;27;20088;-47
2022/03/17 04:40:26;;;;;;;0.77;0.10;;;20.20;47.80;;;;;;5127043;27;20050;-47
2022/03/17 04:42:53;;;;;;;0.17;0.00;;;20.20;47.60;;;;;;5123022;27;20054;-47
2022/03/17 04:45:20;;;;;;;0.98;0.00;;;20.30;47.60;;;;;;5116642;27;20046;-48
2022/03/17 04:47:47;;;;;;;0.13;0.10;;;20.30;47.60;;;;;;5107682;27;20035;-47
2022/03/17 04:50:14;;;;;;;0.00;0.00;;;20.20;47.60;;;;;;5122139;27;20095;-46
2022/03/17 04:55:27;;;;;;;0.30;0.20;;;20.20;47.50;;;;;;5121385;27;20427;-46
2022/03/17 04:57:54;;;;;;;2.17;0.10;;;20.20;48.20;;;;;;5135132;27;20366;-47
2022/03/17 05:00:21;;;;;;;0.10;0.10;;;20.20;47.60;;;;;;5122124;27;20034;-47
2022/03/17 05:02:48;;;;;;;0.10;0.10;;;20.20;47.60;;;;;;5111673;27;20528;-47
2022/03/17 05:05:15;;;;;;;0.15;0.00;;;20.20;47.60;;;;;;5120299;27;20065;-46
2022/03/17 05:07:44;;;;;;;2.05;0.40;;;20.20;47.50;;;;;;5127866;27;20047;-46
2022/03/17 05:10:11;;;;;;;0.25;0.00;;;20.20;47.50;;;;;;5124592;27;20047;-46
2022/03/17 05:12:39;;;;;;;0.32;0.10;;;20.20;47.50;;;;;;5128854;27;20066;-46
2022/03/17 05:15:07;;;;;;;0.30;0.00;;;20.20;47.40;;;;;;5116846;27;20023;-47
2022/03/17 05:17:34;;;;;;;0.10;0.10;;;20.20;47.50;;;;;;5112642;27;20058;-46
2022/03/17 05:20:02;;;;;;;0.05;0.05;;;20.20;47.40;;;;;;5116840;27;20561;-47
2022/03/17 05:22:29;;;;;;;0.30;0.10;;;20.20;47.50;;;;;;5125224;27;20078;-46
2022/03/17 05:24:57;;;;;;;0.95;0.05;;;20.20;47.40;;;;;;5130186;27;20085;-46
2022/03/17 05:27:25;;;;;;;1.75;0.20;;;20.20;47.40;;;;;;5124074;27;20027;-46
2022/03/17 05:29:52;;;;;;;0.88;0.10;;;20.20;47.50;;;;;;5117232;27;20578;-47
2022/03/17 05:32:19;;;;;;;0.50;0.10;;;20.20;47.40;;;;;;5121960;27;20061;-46
2022/03/17 05:34:46;;;;;;;0.00;0.00;;;20.10;47.30;;;;;;5115893;27;20081;-47
2022/03/17 05:37:12;;;;;;;0.22;0.00;;;20.10;47.30;;;;;;5117913;27;20046;-47
2022/03/17 05:39:40;;;;;;;0.20;0.20;;;20.10;47.30;;;;;;5125180;27;20034;-47
2022/03/17 05:42:08;;;;;;;0.30;0.00;;;20.10;47.40;;;;;;5120442;27;20034;-50
2022/03/17 05:44:35;;;;;;;1.10;0.00;;;20.10;47.40;;;;;;5112204;27;20520;-48
2022/03/17 05:47:02;;;;;;;0.22;0.00;;;20.10;47.30;;;;;;5119987;27;20036;-47
2022/03/17 05:49:30;;;;;;;1.05;0.22;;;20.10;47.30;;;;;;5126356;27;20051;-48
2022/03/17 05:51:57;;;;;;;0.40;0.13;;;20.10;47.30;;;;;;5122798;27;20465;-47
2022/03/17 05:54:24;;;;;;;0.17;0.17;;;20.10;47.30;;;;;;5129111;27;20046;-46
2022/03/17 05:56:51;;;;;;;0.73;0.10;;;20.10;47.30;;;;;;5121309;27;20035;-46
2022/03/17 05:59:20;;;;;;;0.00;0.00;;;20.10;47.30;;;;;;5123084;27;20067;-47
2022/03/17 06:01:47;;;;;;;1.35;0.05;;;20.10;47.30;;;;;;5118737;27;20523;-46
2022/03/17 06:04:14;;;;;;;0.30;0.00;;;20.10;47.20;;;;;;5118137;27;20515;-46
2022/03/17 06:06:41;;;;;;;0.30;0.00;;;20.10;47.30;;;;;;5123216;27;20114;-46
2022/03/17 06:09:08;;;;;;;0.00;0.00;;;20.10;47.30;;;;;;5121226;27;20043;-45
2022/03/17 06:11:35;;;;;;;1.65;0.00;;;20.00;47.20;;;;;;5122362;27;20027;-47
2022/03/17 06:14:02;;;;;;;0.10;0.10;;;20.10;47.20;;;;;;5127530;27;20122;-46
2022/03/17 06:16:31;;;;;;;0.73;0.00;;;20.00;47.20;;;;;;5126267;27;20470;-47
2022/03/17 06:18:59;;;;;;;0.25;0.00;;;20.00;47.20;;;;;;5122739;27;20043;-47
2022/03/17 06:21:26;;;;;;;0.00;0.00;;;20.00;47.20;;;;;;5120734;27;20030;-46
2022/03/17 06:23:53;;;;;;;0.10;0.00;;;20.10;47.30;;;;;;5116717;27;20491;-46
2022/03/17 06:26:20;;;;;;;0.00;0.00;;;20.00;47.20;;;;;;5117679;27;20599;-47
2022/03/17 06:28:47;;;;;;;0.43;0.00;;;20.00;47.20;;;;;;5122271;27;20552;-46
2022/03/17 06:31:14;;;;;;;0.57;0.00;;;20.00;47.10;;;;;;5121196;27;20031;-47
2022/03/17 06:33:44;;;;;;;0.10;0.00;;;20.00;47.10;;;;;;5121266;27;20038;-46
2022/03/17 06:36:11;;;;;;;0.20;0.00;;;20.00;47.10;;;;;;5121682;27;20169;-46
2022/03/17 06:38:38;;;;;;;0.10;0.00;;;20.00;47.10;;;;;;5120983;27;20753;-45
2022/03/17 06:41:05;;;;;;;0.57;0.00;;;20.00;47.10;;;;;;5116384;27;20046;-45
2022/03/17 06:43:32;;;;;;;0.00;0.00;;;20.00;47.10;;;;;;5121518;27;20061;-48
2022/03/17 06:46:00;;;;;;;1.33;0.00;;;20.00;47.10;;;;;;5126918;27;20058;-46
2022/03/17 06:48:27;;;;;;;2.33;0.38;;;20.00;47.10;;;;;;5121206;27;20038;-46
2022/03/17 06:50:57;;;;;;;0.47;0.10;;;20.00;47.10;;;;;;5112456;27;20047;-45
2022/03/17 06:53:24;;;;;;;0.55;0.00;;;20.00;47.10;;;;;;5123234;27;20039;-47
2022/03/17 06:55:51;;;;;;;0.40;0.00;;;20.00;47.00;;;;;;5123878;27;20031;-46
2022/03/17 06:58:18;;;;;;;0.17;0.00;;;20.00;47.00;;;;;;5103910;27;20058;-46
2022/03/17 07:00:45;;;;;;;0.40;0.00;;;20.00;47.00;;;;;;5123585;27;20050;-47
2022/03/17 07:03:12;;;;;;;0.75;0.00;;;20.00;47.00;;;;;;5123559;27;20047;-46
2022/03/17 07:05:39;;;;;;;0.15;0.00;;;20.00;47.00;;;;;;5123635;27;20066;-46
2022/03/17 07:08:07;;;;;;;0.40;0.00;;;20.00;46.90;;;;;;5124911;27;20035;-46
2022/03/17 07:10:35;;;;;;;1.20;0.00;;;20.00;46.90;;;;;;5124046;27;20050;-45
2022/03/17 07:13:02;;;;;;;0.10;0.10;;;20.00;46.90;;;;;;5123236;27;20099;-45
2022/03/17 07:15:29;;;;;;;0.10;0.00;;;20.00;46.90;;;;;;5122998;27;20031;-45
2022/03/17 07:17:56;;;;;;;0.90;0.00;;;20.00;46.90;;;;;;5126055;27;20051;-48
2022/03/17 07:20:23;;;;;;;1.00;0.20;;;20.00;46.80;;;;;;5130379;27;20039;-46
2022/03/17 07:22:51;;;;;;;1.10;0.00;;;20.00;46.80;;;;;;5120899;27;20411;-46
2022/03/17 07:25:20;;;;;;;0.00;0.00;;;20.00;46.70;;;;;;5121456;27;20510;-45
2022/03/17 07:27:48;;;;;;;0.03;0.03;;;20.00;46.70;;;;;;5126685;27;20050;-47
2022/03/17 07:30:18;;;;;;;0.25;0.00;;;20.00;46.70;;;;;;5114800;27;20490;-46
2022/03/17 07:32:45;;;;;;;0.00;0.00;;;20.00;46.70;;;;;;5112119;27;20096;-47
2022/03/17 07:35:13;;;;;;;0.55;0.00;;;20.00;46.70;;;;;;5118729;27;20057;-49
2022/03/17 07:37:42;;;;;;;0.90;0.00;;;20.00;46.70;;;;;;5126949;27;20044;-49
2022/03/17 07:40:10;;;;;;;0.20;0.00;;;20.00;46.50;;;;;;5125762;27;20039;-45
2022/03/17 07:42:38;;;;;;;1.50;0.00;;;20.00;46.50;;;;;;5120391;27;20145;-47
2022/03/17 07:45:24;;;;;;;0.20;0.20;;;20.00;46.50;;;;;;5118581;27;20057;-47
2022/03/17 07:48:29;;;;;;;0.03;0.00;;;20.00;46.50;;;;;;5121219;27;20074;-48
2022/03/17 07:51:07;;;;;;;0.00;0.00;;;20.00;46.50;;;;;;5096383;27;20043;-46
2022/03/17 07:53:34;;;;;;;0.28;0.00;;;20.00;46.50;;;;;;5100205;27;20073;-46
2022/03/17 07:56:03;;;;;;;0.88;0.00;;;20.00;46.50;;;;;;5125867;27;20042;-46
2022/03/17 07:58:33;;;;;;;0.20;0.00;;;20.00;46.40;;;;;;5121573;27;20063;-45
2022/03/17 08:01:02;;;;;;;0.75;0.10;;;20.00;46.30;;;;;;5122531;27;20453;-45
2022/03/17 08:03:29;;;;;;;1.35;0.00;;;20.00;46.30;;;;;;5117535;27;20125;-45
2022/03/17 08:05:57;;;;;;;0.30;0.00;;;20.00;46.30;;;;;;5112408;28;20479;-46
2022/03/17 08:08:25;;;;;;;0.43;0.43;;;20.00;46.30;;;;;;5096175;27;20047;-48
2022/03/17 08:10:52;;;;;;;1.30;0.17;;;20.10;46.20;;;;;;5116860;27;20080;-45
2022/03/17 08:13:19;;;;;;;0.22;0.10;;;20.00;46.10;;;;;;5108503;27;20503;-45
2022/03/17 08:15:47;;;;;;;0.35;0.00;;;20.10;46.20;;;;;;5127832;27;20066;-46
2022/03/17 08:18:15;;;;;;;0.10;0.00;;;20.00;46.10;;;;;;5124514;27;20035;-46
2022/03/17 08:20:43;;;;;;;0.50;0.25;;;20.10;46.10;;;;;;5126181;27;20047;-46
2022/03/17 08:23:10;;;;;;;0.10;0.10;;;20.10;46.00;;;;;;5122011;27;20042;-46
2022/03/17 08:25:37;;;;;;;0.85;0.00;;;20.10;46.00;;;;;;5125520;27;20043;-44
2022/03/17 08:28:05;;;;;;;0.10;0.10;;;20.10;46.00;;;;;;5126260;27;20042;-45
2022/03/17 08:30:32;;;;;;;0.25;0.00;;;20.10;46.00;;;;;;5131480;27;20065;-44
2022/03/17 08:33:01;;;;;;;1.00;0.10;;;20.10;46.00;;;;;;5130929;27;20398;-44
2022/03/17 08:35:28;;;;;;;0.40;0.32;;;20.10;45.80;;;;;;5127638;27;20043;-44
2022/03/17 08:37:57;;;;;;;0.10;0.00;;;20.10;45.90;;;;;;5131889;27;20411;-46
2022/03/17 08:40:24;;;;;;;0.00;0.00;;;20.10;45.80;;;;;;5132771;27;20054;-45
2022/03/17 08:42:52;;;;;;;0.85;0.00;;;20.10;45.80;;;;;;5133307;27;20039;-49
2022/03/17 08:50:49;;;;;;;0.22;0.10;;;20.10;45.70;;;;;;5121976;27;20533;-45
2022/03/17 08:53:17;;;;;;;0.65;0.00;;;20.20;45.70;;;;;;5124162;27;20384;-45
2022/03/17 08:55:44;;;;;;;0.10;0.10;;;20.20;45.60;;;;;;5123989;27;20138;-47
2022/03/17 08:58:12;;;;;;;0.10;0.00;;;20.20;45.60;;;;;;5112272;27;20043;-45
2022/03/17 09:00:40;;;;;;;0.05;0.03;;;20.20;45.60;;;;;;5134317;27;20418;-46
2022/03/17 09:03:09;;;;;;;1.02;0.28;;;20.20;45.60;;;;;;5124271;27;20589;-45
2022/03/17 09:05:37;;;;;;;0.43;0.10;;;20.20;45.50;;;;;;5116850;27;20122;-46
2022/03/17 09:08:05;;;;;;;1.25;0.10;;;20.20;45.40;;;;;;5120376;27;20039;-45
2022/03/17 09:10:32;;;;;;;0.47;0.38;;;20.20;45.40;;;;;;5133522;27;20056;-45
2022/03/17 09:13:06;;;;;;;0.77;0.15;;;20.30;45.50;;;;;;5125126;27;20096;-45
2022/03/17 09:15:34;;;;;;;0.10;0.00;;;20.20;45.30;;;;;;5131616;27;20042;-44
2022/03/17 09:18:01;;;;;;;0.70;0.10;;;20.30;45.30;;;;;;5131873;27;20039;-45
2022/03/17 09:20:30;;;;;;;0.50;0.00;;;20.20;45.20;;;;;;5127427;27;20050;-44
2022/03/17 09:22:58;;;;;;;1.27;0.00;;;20.30;45.10;;;;;;5121004;27;20048;-48
2022/03/17 09:25:28;;;;;;;0.88;0.40;;;20.30;45.20;;;;;;5121749;27;20043;-45
2022/03/17 09:27:55;;;;;;;0.10;0.10;;;20.30;45.20;;;;;;5129151;27;20049;-45
2022/03/17 09:30:23;;;;;;;3.03;0.80;;;20.40;45.20;;;;;;5122923;27;20039;-45
2022/03/17 09:32:52;;;;;;;0.55;0.10;;;20.30;45.10;;;;;;5121219;27;20126;-46
2022/03/17 09:35:19;;;;;;;1.10;0.10;;;20.40;45.00;;;;;;5126637;27;20124;-45
2022/03/17 09:37:48;;;;;;;0.93;0.10;;;20.40;44.90;;;;;;5129660;27;20051;-44
2022/03/17 09:40:15;;;;;;;2.53;0.20;;;20.40;44.80;;;;;;5121677;27;20052;-44
2022/03/17 09:42:42;;;;;;;2.17;0.32;;;20.40;44.80;;;;;;5130383;27;20046;-45
2022/03/17 09:45:12;;;;;;;1.65;0.15;;;20.40;44.70;;;;;;5119408;27;20068;-45
2022/03/17 09:47:40;;;;;;;2.85;0.57;;;20.40;44.70;;;;;;5128181;27;20050;-46
2022/03/17 09:50:10;;;;;;;2.33;0.28;;;20.50;44.70;;;;;;5119365;27;20051;-45
2022/03/17 09:52:39;;;;;;;2.72;0.32;;;20.50;44.60;;;;;;5126388;27;20403;-45
2022/03/17 09:55:10;;;;;;;3.35;0.50;;;20.50;44.60;;;;;;5119779;27;20134;-48
2022/03/17 09:57:38;;;;;;;3.42;0.45;;;20.50;44.60;;;;;;5119456;27;20518;-45
2022/03/17 10:00:06;;;;;;;2.90;0.32;;;20.50;44.30;;;;;;5118827;27;20133;-45
2022/03/17 10:02:35;;;;;;;3.38;0.50;;;20.50;44.40;;;;;;5122455;27;20702;-46
2022/03/17 10:05:03;;;;;;;6.43;0.90;;;20.50;44.30;;;;;;5120025;27;20054;-46
2022/03/17 10:07:35;;;;;;;3.83;0.63;;;20.50;44.30;;;;;;5124290;27;20693;-48
2022/03/17 10:10:03;;;;;;;3.35;0.60;;;20.60;44.30;;;;;;5132256;27;20129;-45
2022/03/17 10:12:31;;;;;;;6.43;0.88;;;20.60;44.30;;;;;;5121865;27;20046;-48
2022/03/17 10:14:59;;;;;;;3.53;0.30;;;20.60;44.10;;;;;;5114072;27;20075;-46
2022/03/17 10:17:32;;;;;;;5.18;0.95;;;20.60;44.10;;;;;;5118550;27;20082;-48
2022/03/17 10:20:17;;;;;;;3.95;0.60;;;20.60;44.10;;;;;;5127671;27;20052;-49
2022/03/17 10:22:45;;;;;;;8.05;0.75;;;20.70;44.10;;;;;;5122150;27;20752;-46
2022/03/17 10:25:14;;;;;;;5.50;0.60;;;20.60;44.10;;;;;;5116716;27;20480;-50
2022/03/17 10:27:45;;;;;;;4.68;0.93;;;20.60;44.10;;;;;;5120287;27;20124;-51
2022/03/17 10:30:13;;;;;;;6.25;1.38;;;20.70;44.00;;;;;;5094057;27;20039;-50
2022/03/17 10:32:53;;;;;;;5.65;0.65;;;20.70;44.00;;;;;;5115566;27;20495;-45
2022/03/17 10:35:24;;;;;;;4.45;0.52;;;20.70;44.00;;;;;;5124789;27;20043;-45
2022/03/17 10:37:52;;;;;;;6.72;0.73;;;20.70;44.00;;;;;;5118603;27;20044;-45
2022/03/17 10:40:19;;;;;;;4.82;0.60;;;20.70;43.90;;;;;;5122253;27;20531;-47
2022/03/17 10:42:47;;;;;;;5.90;0.90;;;20.70;43.90;;;;;;5124302;27;20058;-46
2022/03/17 10:45:17;;;;;;;4.57;0.63;;;20.70;43.80;;;;;;5113047;27;20043;-45
2022/03/17 10:47:44;;;;;;;4.72;0.65;;;20.70;43.80;;;;;;5119009;27;20043;-46
2022/03/17 10:50:13;;;;;;;5.38;1.15;;;20.70;43.70;;;;;;5124516;27;20039;-46
2022/03/17 10:52:52;;;;;;;6.85;0.88;;;20.80;43.70;;;;;;5129363;27;20039;-48
2022/03/17 10:55:24;;;;;;;8.18;1.20;;;20.80;43.70;;;;;;5122233;27;20051;-49
2022/03/17 10:57:55;;;;;;;5.80;1.52;;;20.80;43.70;;;;;;5123179;27;20137;-47
2022/03/17 11:00:24;;;;;;;6.93;1.15;;;20.80;43.70;;;;;;5119212;27;20109;-45
2022/03/17 11:02:53;;;;;;;7.72;1.73;;;20.80;43.70;;;;;;5123556;27;20053;-46
2022/03/17 11:05:21;;;;;;;7.07;0.88;;;20.80;43.70;;;;;;5115436;27;20074;-49
2022/03/17 11:07:48;;;;;;;8.10;1.60;;;20.80;43.60;;;;;;5119737;27;20125;-48
2022/03/17 11:10:18;;;;;;;3.28;0.98;;;20.80;43.60;;;;;;5129106;27;20039;-50
2022/03/17 11:12:46;;;;;;;10.13;2.00;;;20.80;43.50;;;;;;5117734;27;20035;-46
2022/03/17 11:15:14;;;;;;;5.60;1.58;;;20.80;43.50;;;;;;5095238;27;20042;-49
2022/03/17 11:17:46;;;;;;;4.32;1.08;;;20.90;43.50;;;;;;5122489;27;20114;-45
2022/03/17 11:20:19;;;;;;;7.45;2.05;;;20.80;43.30;;;;;;5114529;27;20047;-47
2022/03/17 11:23:05;;;;;;;6.75;1.50;;;20.90;43.40;;;;;;5116181;27;20044;-49
2022/03/17 11:25:34;;;;;;;7.07;1.33;;;20.90;43.30;;;;;;5118279;27;20540;-48
2022/03/17 11:28:04;;;;;;;7.35;1.05;;;20.90;43.40;;;;;;5118773;27;20043;-46
2022/03/17 11:30:42;;;;;;;8.68;0.95;;;20.90;43.40;;;;;;5125549;27;20161;-45
2022/03/17 11:33:22;;;;;;;5.55;1.42;;;20.90;43.40;;;;;;5104901;27;20042;-46
2022/03/17 11:35:54;;;;;;;6.22;0.77;;;20.90;43.30;;;;;;5118373;27;20092;-46
2022/03/17 11:38:26;;;;;;;9.20;1.83;;;20.90;43.30;;;;;;5113517;27;20042;-47
2022/03/17 11:41:07;;;;;;;5.75;0.77;;;20.90;43.40;;;;;;5118313;27;20039;-48
2022/03/17 11:44:01;;;;;;;7.07;0.55;;;21.00;43.40;;;;;;5126806;27;20042;-46
2022/03/17 11:46:43;;;;;;;5.93;0.77;;;21.00;43.20;;;;;;5119600;27;20043;-47
2022/03/17 11:49:19;;;;;;;3.95;1.75;;;21.00;43.20;;;;;;5101848;27;20130;-46
2022/03/17 11:52:00;;;;;;;3.78;1.08;;;21.00;43.20;;;;;;5123848;27;20141;-49
2022/03/17 11:54:29;;;;;;;2.50;1.20;;;20.90;43.10;;;;;;5120772;27;20119;-48
2022/03/17 11:56:58;;;;;;;4.47;0.75;;;20.90;43.10;;;;;;5096645;27;20088;-49
2022/03/17 11:59:50;;;;;;;4.13;1.27;;;21.00;43.20;;;;;;5116911;27;20062;-48
2022/03/17 12:02:21;;;;;;;6.68;1.33;;;21.00;43.10;;;;;;5126057;27;20059;-46
2022/03/17 12:04:52;;;;;;;2.45;0.50;;;21.00;43.10;;;;;;5099067;28;20036;-48
2022/03/17 12:07:20;;;;;;;4.28;1.10;;;21.00;43.00;;;;;;5122145;27;20487;-48
2022/03/17 12:09:48;;;;;;;5.18;0.63;;;21.00;43.00;;;;;;5119526;27;20035;-49
2022/03/17 12:12:19;;;;;;;2.15;0.30;;;21.00;43.00;;;;;;5121997;27;20039;-50
2022/03/17 12:14:52;;;;;;;3.42;0.93;;;21.00;42.80;;;;;;5114163;27;20418;-47
2022/03/17 12:17:22;;;;;;;3.17;0.55;;;21.10;42.80;;;;;;5118835;27;20557;-45
2022/03/17 12:20:04;;;;;;;4.72;1.20;;;21.10;42.70;;;;;;5117240;27;20519;-46
2022/03/17 12:22:39;;;;;;;1.75;0.68;;;21.10;42.60;;;;;;5117067;27;20396;-48
2022/03/17 12:25:18;;;;;;;4.85;1.05;;;21.10;42.60;;;;;;5127554;27;20050;-47
2022/03/17 12:27:50;;;;;;;3.22;0.47;;;21.10;42.60;;;;;;5123202;27;20040;-47
2022/03/17 12:30:19;;;;;;;2.35;0.40;;;21.10;42.60;;;;;;5113229;27;20097;-46
2022/03/17 12:44:46;;;;;;;1.63;0.52;;;21.10;42.10;;;;;;5053650;27;20489;-56
2022/03/17 12:47:14;;;;;;;1.95;0.30;;;22.20;40.40;;;;;;5042489;28;20127;-54
2022/03/17 12:49:42;;;;;;;2.10;0.50;;;22.00;40.70;;;;;;5042125;28;20037;-54
2022/03/17 12:52:13;;;;;;;3.08;0.93;;;21.80;40.90;;;;;;5041984;28;20040;-56
2022/03/17 12:54:40;;;;;;;2.70;0.70;;;21.80;41.00;;;;;;5042783;28;20049;-53
2022/03/17 12:57:07;;;;;;;1.23;0.40;;;21.70;41.20;;;;;;5043724;28;20140;-55
2022/03/17 12:59:34;;;;;;;3.67;0.25;;;21.60;41.30;;;;;;5042409;28;20479;-54
2022/03/17 13:02:03;;;;;;;1.77;0.30;;;21.60;41.40;;;;;;5042458;28;20475;-55
2022/03/17 13:04:30;;;;;;;0.82;0.60;;;21.60;41.30;;;;;;5041522;28;20052;-52
2022/03/17 13:06:57;;;;;;;0.95;0.40;;;21.50;41.40;;;;;;5042327;28;20039;-54
2022/03/17 13:09:28;;;;;;;1.20;0.15;;;21.50;41.40;;;;;;5043861;28;20069;-54
2022/03/17 13:14:53;;;;;;;2.17;0.63;;;21.40;41.50;;;;;;5041874;28;20080;-52
2022/03/17 13:17:36;;;;;;;3.15;0.52;;;21.40;41.50;;;;;;5042269;28;20422;-54
2022/03/17 13:20:09;;;;;;;2.00;0.85;;;21.40;41.50;;;;;;5042123;28;20048;-53
2022/03/17 13:22:42;;;;;;;2.00;0.38;;;21.40;41.50;;;;;;5041840;28;20048;-54
2022/03/17 13:25:12;;;;;;;1.10;0.30;;;21.40;41.60;;;;;;5035894;28;20033;-57
2022/03/17 13:27:42;;;;;;;2.72;0.30;;;21.40;41.60;;;;;;5039873;28;20112;-56
2022/03/17 13:30:11;;;;;;;3.65;0.30;;;21.40;42.20;;;;;;5042965;28;20061;-56
2022/03/17 13:32:44;;;;;;;0.65;0.28;;;21.40;41.60;;;;;;5042214;28;20074;-54